sensor_id;sensor_type;location;lat;lon;timestamp;temperature;humidity
76787;DHT22;65739;51.482;5.702;2023-06-01T00:01:27;13.80;99.90
76787;DHT22;65739;51.482;5.702;2023-06-01T00:03:58;13.70;99.90
76787;DHT22;65739;51.482;5.702;2023-06-01T00:06:24;13.70;99.90
76787;DHT22;65739;51.482;5.702;2023-06-01T00:08:54;13.60;99.90
76787;DHT22;65739;51.482;5.702;2023-06-01T00:11:20;13.60;99.90
76787;DHT22;65739;51.482;5.702;2023-06-01T00:13:47;13.60;99.90
76787;DHT22;65739;51.482;5.702;2023-06-01T00:16:13;13.50;99.90
76787;DHT22;65739;51.482;5.702;2023-06-01T00:18:39;13.50;99.90
76787;DHT22;65739;51.482;5.702;2023-06-01T00:21:05;13.50;99.90
76787;DHT22;65739;51.482;5.702;2023-06-01T00:23:31;13.40;99.90
76787;DHT22;65739;51.482;5.702;2023-06-01T00:25:57;13.40;99.90
76787;DHT22;65739;51.482;5.702;2023-06-01T00:28:22;13.30;99.90
76787;DHT22;65739;51.482;5.702;2023-06-01T00:30:48;13.30;99.90
76787;DHT22;65739;51.482;5.702;2023-06-01T00:33:13;13.20;99.90
76787;DHT22;65739;51.482;5.702;2023-06-01T00:35:39;13.10;99.90
76787;DHT22;65739;51.482;5.702;2023-06-01T00:38:06;13.10;99.90
76787;DHT22;65739;51.482;5.702;2023-06-01T00:40:33;13.00;99.90
76787;DHT22;65739;51.482;5.702;2023-06-01T00:42:58;13.00;99.90
76787;DHT22;65739;51.482;5.702;2023-06-01T00:45:24;13.00;99.90
76787;DHT22;65739;51.482;5.702;2023-06-01T00:47:49;12.90;99.90
76787;DHT22;65739;51.482;5.702;2023-06-01T00:50:15;12.80;99.90
76787;DHT22;65739;51.482;5.702;2023-06-01T00:52:42;12.70;99.90
76787;DHT22;65739;51.482;5.702;2023-06-01T00:55:08;12.70;99.90
76787;DHT22;65739;51.482;5.702;2023-06-01T00:57:35;12.70;99.90
76787;DHT22;65739;51.482;5.702;2023-06-01T01:00:02;12.70;99.90
76787;DHT22;65739;51.482;5.702;2023-06-01T01:02:41;12.60;99.90
76787;DHT22;65739;51.482;5.702;2023-06-01T01:05:08;12.50;99.90
76787;DHT22;65739;51.482;5.702;2023-06-01T01:07:59;12.50;99.90
76787;DHT22;65739;51.482;5.702;2023-06-01T01:11:04;12.40;99.90
76787;DHT22;65739;51.482;5.702;2023-06-01T01:13:42;12.30;99.90
76787;DHT22;65739;51.482;5.702;2023-06-01T01:19:11;12.20;99.90
76787;DHT22;65739;51.482;5.702;2023-06-01T01:21:45;12.10;99.90
76787;DHT22;65739;51.482;5.702;2023-06-01T01:27:37;12.00;99.90
76787;DHT22;65739;51.482;5.702;2023-06-01T01:30:06;11.90;99.90
76787;DHT22;65739;51.482;5.702;2023-06-01T01:32:32;11.80;99.90
76787;DHT22;65739;51.482;5.702;2023-06-01T01:34:59;11.80;99.90
76787;DHT22;65739;51.482;5.702;2023-06-01T01:37:26;11.80;99.90
76787;DHT22;65739;51.482;5.702;2023-06-01T01:39:51;11.80;99.90
76787;DHT22;65739;51.482;5.702;2023-06-01T01:42:17;11.70;99.90
76787;DHT22;65739;51.482;5.702;2023-06-01T01:44:44;11.60;99.90
76787;DHT22;65739;51.482;5.702;2023-06-01T01:47:31;11.50;99.90
76787;DHT22;65739;51.482;5.702;2023-06-01T01:50:04;11.50;99.90
76787;DHT22;65739;51.482;5.702;2023-06-01T01:52:38;11.50;99.90
76787;DHT22;65739;51.482;5.702;2023-06-01T01:55:06;11.50;99.90
76787;DHT22;65739;51.482;5.702;2023-06-01T01:57:33;11.50;99.90
76787;DHT22;65739;51.482;5.702;2023-06-01T02:00:03;11.40;99.90
76787;DHT22;65739;51.482;5.702;2023-06-01T02:02:30;11.40;99.90
76787;DHT22;65739;51.482;5.702;2023-06-01T02:04:55;11.30;99.90
76787;DHT22;65739;51.482;5.702;2023-06-01T02:07:21;11.30;99.90
76787;DHT22;65739;51.482;5.702;2023-06-01T02:09:47;11.10;99.90
76787;DHT22;65739;51.482;5.702;2023-06-01T02:12:12;11.10;99.90
76787;DHT22;65739;51.482;5.702;2023-06-01T02:14:38;11.10;99.90
76787;DHT22;65739;51.482;5.702;2023-06-01T02:17:04;10.90;99.90
76787;DHT22;65739;51.482;5.702;2023-06-01T02:19:31;10.90;99.90
76787;DHT22;65739;51.482;5.702;2023-06-01T02:21:56;11.00;99.90
76787;DHT22;65739;51.482;5.702;2023-06-01T02:24:22;11.00;99.90
76787;DHT22;65739;51.482;5.702;2023-06-01T02:26:48;10.90;99.90
76787;DHT22;65739;51.482;5.702;2023-06-01T02:29:17;10.90;99.90
76787;DHT22;65739;51.482;5.702;2023-06-01T02:31:45;10.90;99.90
76787;DHT22;65739;51.482;5.702;2023-06-01T02:34:11;10.90;99.90
76787;DHT22;65739;51.482;5.702;2023-06-01T02:36:36;11.00;99.90
76787;DHT22;65739;51.482;5.702;2023-06-01T02:39:02;11.00;99.90
76787;DHT22;65739;51.482;5.702;2023-06-01T02:41:28;11.10;99.90
76787;DHT22;65739;51.482;5.702;2023-06-01T02:43:53;11.20;99.90
76787;DHT22;65739;51.482;5.702;2023-06-01T02:46:19;11.20;99.90
76787;DHT22;65739;51.482;5.702;2023-06-01T02:48:45;11.30;99.90
76787;DHT22;65739;51.482;5.702;2023-06-01T02:51:11;11.40;99.90
76787;DHT22;65739;51.482;5.702;2023-06-01T02:53:40;11.30;99.90
76787;DHT22;65739;51.482;5.702;2023-06-01T02:56:06;11.40;99.90
76787;DHT22;65739;51.482;5.702;2023-06-01T02:58:32;11.40;99.90
76787;DHT22;65739;51.482;5.702;2023-06-01T03:00:57;11.30;99.90
76787;DHT22;65739;51.482;5.702;2023-06-01T03:03:26;11.40;99.90
76787;DHT22;65739;51.482;5.702;2023-06-01T03:05:53;11.20;99.90
76787;DHT22;65739;51.482;5.702;2023-06-01T03:08:18;11.30;99.90
76787;DHT22;65739;51.482;5.702;2023-06-01T03:10:45;11.30;99.90
76787;DHT22;65739;51.482;5.702;2023-06-01T03:13:11;11.30;99.90
76787;DHT22;65739;51.482;5.702;2023-06-01T03:15:36;11.30;99.90
76787;DHT22;65739;51.482;5.702;2023-06-01T03:18:05;11.30;99.90
76787;DHT22;65739;51.482;5.702;2023-06-01T03:20:32;11.20;99.90
76787;DHT22;65739;51.482;5.702;2023-06-01T03:22:57;11.20;99.90
76787;DHT22;65739;51.482;5.702;2023-06-01T03:25:23;11.20;99.90
76787;DHT22;65739;51.482;5.702;2023-06-01T03:27:50;11.20;99.90
76787;DHT22;65739;51.482;5.702;2023-06-01T03:30:16;11.30;99.90
76787;DHT22;65739;51.482;5.702;2023-06-01T03:32:42;11.30;99.90
76787;DHT22;65739;51.482;5.702;2023-06-01T03:35:10;11.40;99.90
76787;DHT22;65739;51.482;5.702;2023-06-01T03:37:39;11.30;99.90
76787;DHT22;65739;51.482;5.702;2023-06-01T03:40:05;11.30;99.90
76787;DHT22;65739;51.482;5.702;2023-06-01T03:42:36;11.20;99.90
76787;DHT22;65739;51.482;5.702;2023-06-01T03:45:02;11.20;99.90
76787;DHT22;65739;51.482;5.702;2023-06-01T03:47:30;11.30;99.90
76787;DHT22;65739;51.482;5.702;2023-06-01T03:49:55;11.40;99.90
76787;DHT22;65739;51.482;5.702;2023-06-01T03:52:23;11.40;99.90
76787;DHT22;65739;51.482;5.702;2023-06-01T03:54:49;11.40;99.90
76787;DHT22;65739;51.482;5.702;2023-06-01T03:57:15;11.50;99.90
76787;DHT22;65739;51.482;5.702;2023-06-01T03:59:40;11.50;99.90
76787;DHT22;65739;51.482;5.702;2023-06-01T04:02:06;11.40;99.90
76787;DHT22;65739;51.482;5.702;2023-06-01T04:04:34;11.40;99.90
76787;DHT22;65739;51.482;5.702;2023-06-01T04:07:00;11.40;99.90
76787;DHT22;65739;51.482;5.702;2023-06-01T04:09:28;11.40;99.90
76787;DHT22;65739;51.482;5.702;2023-06-01T04:11:54;11.40;99.90
76787;DHT22;65739;51.482;5.702;2023-06-01T04:14:20;11.40;99.90
76787;DHT22;65739;51.482;5.702;2023-06-01T04:16:46;11.40;99.90
76787;DHT22;65739;51.482;5.702;2023-06-01T04:19:11;11.40;99.90
76787;DHT22;65739;51.482;5.702;2023-06-01T04:21:37;11.40;99.90
76787;DHT22;65739;51.482;5.702;2023-06-01T04:24:03;11.40;99.90
76787;DHT22;65739;51.482;5.702;2023-06-01T04:26:29;11.40;99.90
76787;DHT22;65739;51.482;5.702;2023-06-01T04:28:57;11.40;99.90
76787;DHT22;65739;51.482;5.702;2023-06-01T04:31:23;11.60;99.90
76787;DHT22;65739;51.482;5.702;2023-06-01T04:33:49;11.60;99.90
76787;DHT22;65739;51.482;5.702;2023-06-01T04:36:22;11.60;99.90
76787;DHT22;65739;51.482;5.702;2023-06-01T04:38:48;11.60;99.90
76787;DHT22;65739;51.482;5.702;2023-06-01T04:41:18;11.60;99.90
76787;DHT22;65739;51.482;5.702;2023-06-01T04:43:45;11.60;99.90
76787;DHT22;65739;51.482;5.702;2023-06-01T04:46:18;11.50;99.90
76787;DHT22;65739;51.482;5.702;2023-06-01T04:48:45;11.60;99.90
76787;DHT22;65739;51.482;5.702;2023-06-01T04:51:12;11.60;99.90
76787;DHT22;65739;51.482;5.702;2023-06-01T04:53:48;11.60;99.90
76787;DHT22;65739;51.482;5.702;2023-06-01T04:56:18;11.70;99.90
76787;DHT22;65739;51.482;5.702;2023-06-01T04:58:45;11.70;99.90
76787;DHT22;65739;51.482;5.702;2023-06-01T05:01:13;11.70;99.90
76787;DHT22;65739;51.482;5.702;2023-06-01T05:03:41;11.80;99.90
76787;DHT22;65739;51.482;5.702;2023-06-01T05:06:08;11.90;99.90
76787;DHT22;65739;51.482;5.702;2023-06-01T05:08:34;12.00;99.90
76787;DHT22;65739;51.482;5.702;2023-06-01T05:11:01;12.10;99.90
76787;DHT22;65739;51.482;5.702;2023-06-01T05:13:26;12.10;99.90
76787;DHT22;65739;51.482;5.702;2023-06-01T05:15:52;12.20;99.90
76787;DHT22;65739;51.482;5.702;2023-06-01T05:18:18;12.30;99.90
76787;DHT22;65739;51.482;5.702;2023-06-01T05:20:43;12.20;99.90
76787;DHT22;65739;51.482;5.702;2023-06-01T05:23:09;12.20;99.90
76787;DHT22;65739;51.482;5.702;2023-06-01T05:25:34;12.30;99.90
76787;DHT22;65739;51.482;5.702;2023-06-01T05:28:00;12.70;99.90
76787;DHT22;65739;51.482;5.702;2023-06-01T05:30:25;12.50;99.90
76787;DHT22;65739;51.482;5.702;2023-06-01T05:32:51;12.40;99.90
76787;DHT22;65739;51.482;5.702;2023-06-01T05:35:16;12.60;99.90
76787;DHT22;65739;51.482;5.702;2023-06-01T05:37:42;12.60;99.90
76787;DHT22;65739;51.482;5.702;2023-06-01T05:40:08;12.60;99.90
76787;DHT22;65739;51.482;5.702;2023-06-01T05:42:34;12.60;99.90
76787;DHT22;65739;51.482;5.702;2023-06-01T05:45:00;12.70;99.90
76787;DHT22;65739;51.482;5.702;2023-06-01T05:47:25;12.60;99.90
76787;DHT22;65739;51.482;5.702;2023-06-01T05:49:51;12.70;99.90
76787;DHT22;65739;51.482;5.702;2023-06-01T05:52:16;12.50;99.90
76787;DHT22;65739;51.482;5.702;2023-06-01T05:54:42;12.50;99.90
76787;DHT22;65739;51.482;5.702;2023-06-01T05:57:08;12.50;99.90
76787;DHT22;65739;51.482;5.702;2023-06-01T05:59:33;12.60;99.90
76787;DHT22;65739;51.482;5.702;2023-06-01T06:01:59;12.70;99.90
76787;DHT22;65739;51.482;5.702;2023-06-01T06:04:25;12.90;99.90
76787;DHT22;65739;51.482;5.702;2023-06-01T06:06:50;13.20;99.90
76787;DHT22;65739;51.482;5.702;2023-06-01T06:09:16;13.20;99.90
76787;DHT22;65739;51.482;5.702;2023-06-01T06:11:42;13.00;99.90
76787;DHT22;65739;51.482;5.702;2023-06-01T06:14:08;12.80;99.90
76787;DHT22;65739;51.482;5.702;2023-06-01T06:16:36;12.90;99.90
76787;DHT22;65739;51.482;5.702;2023-06-01T06:19:02;12.90;99.90
76787;DHT22;65739;51.482;5.702;2023-06-01T06:21:27;13.00;99.90
76787;DHT22;65739;51.482;5.702;2023-06-01T06:23:53;13.00;99.90
76787;DHT22;65739;51.482;5.702;2023-06-01T06:26:24;13.30;99.90
76787;DHT22;65739;51.482;5.702;2023-06-01T06:28:51;13.50;99.90
76787;DHT22;65739;51.482;5.702;2023-06-01T06:31:16;13.50;99.90
76787;DHT22;65739;51.482;5.702;2023-06-01T06:33:42;13.60;99.90
76787;DHT22;65739;51.482;5.702;2023-06-01T06:36:08;13.80;99.90
76787;DHT22;65739;51.482;5.702;2023-06-01T06:38:33;13.80;99.90
76787;DHT22;65739;51.482;5.702;2023-06-01T06:40:59;13.70;99.90
76787;DHT22;65739;51.482;5.702;2023-06-01T06:43:25;13.70;99.90
76787;DHT22;65739;51.482;5.702;2023-06-01T06:45:51;13.50;99.90
76787;DHT22;65739;51.482;5.702;2023-06-01T06:48:16;13.50;99.90
76787;DHT22;65739;51.482;5.702;2023-06-01T06:50:41;13.10;99.90
76787;DHT22;65739;51.482;5.702;2023-06-01T06:53:09;13.00;99.90
76787;DHT22;65739;51.482;5.702;2023-06-01T06:55:35;13.10;99.90
76787;DHT22;65739;51.482;5.702;2023-06-01T06:58:01;13.00;99.90
76787;DHT22;65739;51.482;5.702;2023-06-01T07:00:26;13.20;99.90
76787;DHT22;65739;51.482;5.702;2023-06-01T07:02:52;13.30;99.90
76787;DHT22;65739;51.482;5.702;2023-06-01T07:05:18;13.60;99.90
76787;DHT22;65739;51.482;5.702;2023-06-01T07:07:43;13.80;99.90
76787;DHT22;65739;51.482;5.702;2023-06-01T07:10:09;14.10;99.90
76787;DHT22;65739;51.482;5.702;2023-06-01T07:12:35;14.10;99.90
76787;DHT22;65739;51.482;5.702;2023-06-01T07:15:01;14.40;99.90
76787;DHT22;65739;51.482;5.702;2023-06-01T07:17:27;14.60;99.90
76787;DHT22;65739;51.482;5.702;2023-06-01T07:19:53;14.70;99.90
76787;DHT22;65739;51.482;5.702;2023-06-01T07:22:19;14.50;99.90
76787;DHT22;65739;51.482;5.702;2023-06-01T07:24:46;14.40;99.90
76787;DHT22;65739;51.482;5.702;2023-06-01T07:27:13;14.40;99.90
76787;DHT22;65739;51.482;5.702;2023-06-01T07:29:39;14.40;99.90
76787;DHT22;65739;51.482;5.702;2023-06-01T07:32:05;14.30;99.90
76787;DHT22;65739;51.482;5.702;2023-06-01T07:34:31;14.40;99.90
76787;DHT22;65739;51.482;5.702;2023-06-01T07:36:58;14.50;99.90
76787;DHT22;65739;51.482;5.702;2023-06-01T07:39:24;14.50;99.90
76787;DHT22;65739;51.482;5.702;2023-06-01T07:41:50;14.60;99.90
76787;DHT22;65739;51.482;5.702;2023-06-01T07:44:19;14.70;99.90
76787;DHT22;65739;51.482;5.702;2023-06-01T07:46:46;14.70;99.90
76787;DHT22;65739;51.482;5.702;2023-06-01T07:49:14;14.90;99.90
76787;DHT22;65739;51.482;5.702;2023-06-01T07:51:41;14.90;99.90
76787;DHT22;65739;51.482;5.702;2023-06-01T07:54:08;15.10;99.90
76787;DHT22;65739;51.482;5.702;2023-06-01T07:56:34;15.20;99.90
76787;DHT22;65739;51.482;5.702;2023-06-01T07:59:01;15.10;99.90
76787;DHT22;65739;51.482;5.702;2023-06-01T08:01:26;15.30;99.90
76787;DHT22;65739;51.482;5.702;2023-06-01T08:03:52;15.40;99.90
76787;DHT22;65739;51.482;5.702;2023-06-01T08:06:18;15.70;99.90
76787;DHT22;65739;51.482;5.702;2023-06-01T08:08:43;15.70;99.90
76787;DHT22;65739;51.482;5.702;2023-06-01T08:11:11;15.80;99.90
76787;DHT22;65739;51.482;5.702;2023-06-01T08:13:36;15.90;99.90
76787;DHT22;65739;51.482;5.702;2023-06-01T08:16:02;16.00;99.90
76787;DHT22;65739;51.482;5.702;2023-06-01T08:18:29;15.80;99.90
76787;DHT22;65739;51.482;5.702;2023-06-01T08:20:55;16.10;99.90
76787;DHT22;65739;51.482;5.702;2023-06-01T08:23:21;16.10;99.90
76787;DHT22;65739;51.482;5.702;2023-06-01T08:25:48;16.50;99.90
76787;DHT22;65739;51.482;5.702;2023-06-01T08:28:14;16.60;99.90
76787;DHT22;65739;51.482;5.702;2023-06-01T08:30:39;16.50;99.90
76787;DHT22;65739;51.482;5.702;2023-06-01T08:33:05;16.70;99.90
76787;DHT22;65739;51.482;5.702;2023-06-01T08:35:31;16.90;99.90
76787;DHT22;65739;51.482;5.702;2023-06-01T08:37:59;16.80;99.90
76787;DHT22;65739;51.482;5.702;2023-06-01T08:40:25;16.80;99.90
76787;DHT22;65739;51.482;5.702;2023-06-01T08:42:57;17.40;99.90
76787;DHT22;65739;51.482;5.702;2023-06-01T08:45:25;17.40;99.90
76787;DHT22;65739;51.482;5.702;2023-06-01T08:47:53;17.50;99.90
76787;DHT22;65739;51.482;5.702;2023-06-01T08:50:20;17.70;99.90
76787;DHT22;65739;51.482;5.702;2023-06-01T08:52:46;17.70;99.90
76787;DHT22;65739;51.482;5.702;2023-06-01T08:55:13;17.90;99.90
76787;DHT22;65739;51.482;5.702;2023-06-01T08:57:42;17.80;99.90
76787;DHT22;65739;51.482;5.702;2023-06-01T09:00:11;17.90;99.90
76787;DHT22;65739;51.482;5.702;2023-06-01T09:02:37;18.00;99.90
76787;DHT22;65739;51.482;5.702;2023-06-01T09:05:02;18.00;99.90
76787;DHT22;65739;51.482;5.702;2023-06-01T09:07:29;18.20;99.90
76787;DHT22;65739;51.482;5.702;2023-06-01T09:09:57;18.30;99.90
76787;DHT22;65739;51.482;5.702;2023-06-01T09:12:28;18.50;99.90
76787;DHT22;65739;51.482;5.702;2023-06-01T09:15:10;18.80;99.90
76787;DHT22;65739;51.482;5.702;2023-06-01T09:17:37;18.80;99.90
76787;DHT22;65739;51.482;5.702;2023-06-01T09:20:04;19.00;99.90
76787;DHT22;65739;51.482;5.702;2023-06-01T09:22:45;19.20;99.90
76787;DHT22;65739;51.482;5.702;2023-06-01T09:25:12;19.40;99.90
76787;DHT22;65739;51.482;5.702;2023-06-01T09:27:49;19.40;99.90
76787;DHT22;65739;51.482;5.702;2023-06-01T09:30:17;19.10;99.90
76787;DHT22;65739;51.482;5.702;2023-06-01T09:32:44;19.60;99.90
76787;DHT22;65739;51.482;5.702;2023-06-01T09:35:16;20.00;99.90
76787;DHT22;65739;51.482;5.702;2023-06-01T09:37:54;20.20;99.90
76787;DHT22;65739;51.482;5.702;2023-06-01T09:40:23;19.90;99.90
76787;DHT22;65739;51.482;5.702;2023-06-01T09:42:48;20.10;99.90
76787;DHT22;65739;51.482;5.702;2023-06-01T09:45:22;20.20;99.90
76787;DHT22;65739;51.482;5.702;2023-06-01T09:47:50;20.40;99.90
76787;DHT22;65739;51.482;5.702;2023-06-01T09:50:35;20.40;99.90
76787;DHT22;65739;51.482;5.702;2023-06-01T09:53:02;20.70;99.90
76787;DHT22;65739;51.482;5.702;2023-06-01T09:55:28;20.60;99.90
76787;DHT22;65739;51.482;5.702;2023-06-01T09:58:17;20.60;99.90
76787;DHT22;65739;51.482;5.702;2023-06-01T10:00:45;20.60;99.90
76787;DHT22;65739;51.482;5.702;2023-06-01T10:03:12;20.90;99.90
76787;DHT22;65739;51.482;5.702;2023-06-01T10:05:38;21.00;99.90
76787;DHT22;65739;51.482;5.702;2023-06-01T10:08:04;21.40;99.90
76787;DHT22;65739;51.482;5.702;2023-06-01T10:10:31;21.50;99.90
76787;DHT22;65739;51.482;5.702;2023-06-01T10:12:58;21.60;99.90
76787;DHT22;65739;51.482;5.702;2023-06-01T10:15:23;21.30;99.90
76787;DHT22;65739;51.482;5.702;2023-06-01T10:17:49;21.30;99.90
76787;DHT22;65739;51.482;5.702;2023-06-01T10:20:16;21.30;99.90
76787;DHT22;65739;51.482;5.702;2023-06-01T10:22:42;21.60;99.90
76787;DHT22;65739;51.482;5.702;2023-06-01T10:25:10;21.80;99.90
76787;DHT22;65739;51.482;5.702;2023-06-01T10:28:04;22.00;99.90
76787;DHT22;65739;51.482;5.702;2023-06-01T10:30:30;22.10;99.90
76787;DHT22;65739;51.482;5.702;2023-06-01T10:32:56;21.80;99.90
76787;DHT22;65739;51.482;5.702;2023-06-01T10:40:40;21.90;99.90
76787;DHT22;65739;51.482;5.702;2023-06-01T10:43:07;22.00;99.90
76787;DHT22;65739;51.482;5.702;2023-06-01T10:48:00;22.20;99.90
76787;DHT22;65739;51.482;5.702;2023-06-01T10:50:26;22.50;99.90
76787;DHT22;65739;51.482;5.702;2023-06-01T10:52:53;22.60;99.90
76787;DHT22;65739;51.482;5.702;2023-06-01T10:55:20;22.50;99.90
76787;DHT22;65739;51.482;5.702;2023-06-01T10:57:47;22.60;99.90
76787;DHT22;65739;51.482;5.702;2023-06-01T11:00:21;22.40;99.90
76787;DHT22;65739;51.482;5.702;2023-06-01T11:03:04;22.20;99.90
76787;DHT22;65739;51.482;5.702;2023-06-01T11:05:34;22.70;99.90
76787;DHT22;65739;51.482;5.702;2023-06-01T11:07:59;22.80;99.90
76787;DHT22;65739;51.482;5.702;2023-06-01T11:13:34;22.90;99.90
76787;DHT22;65739;51.482;5.702;2023-06-01T11:18:55;22.50;99.90
76787;DHT22;65739;51.482;5.702;2023-06-01T11:21:44;22.70;99.90
76787;DHT22;65739;51.482;5.702;2023-06-01T11:24:11;23.00;99.90
76787;DHT22;65739;51.482;5.702;2023-06-01T11:26:40;23.10;99.90
76787;DHT22;65739;51.482;5.702;2023-06-01T11:29:17;23.40;99.90
76787;DHT22;65739;51.482;5.702;2023-06-01T11:31:46;23.30;99.90
76787;DHT22;65739;51.482;5.702;2023-06-01T11:34:14;23.20;99.90
76787;DHT22;65739;51.482;5.702;2023-06-01T11:36:43;23.40;99.90
76787;DHT22;65739;51.482;5.702;2023-06-01T11:39:20;23.50;99.90
76787;DHT22;65739;51.482;5.702;2023-06-01T11:41:48;23.60;99.90
76787;DHT22;65739;51.482;5.702;2023-06-01T11:44:13;23.90;99.90
76787;DHT22;65739;51.482;5.702;2023-06-01T11:46:54;24.00;99.90
76787;DHT22;65739;51.482;5.702;2023-06-01T11:49:20;24.20;99.90
76787;DHT22;65739;51.482;5.702;2023-06-01T11:51:46;24.20;99.90
76787;DHT22;65739;51.482;5.702;2023-06-01T11:54:11;23.90;99.90
76787;DHT22;65739;51.482;5.702;2023-06-01T11:56:37;24.00;99.90
76787;DHT22;65739;51.482;5.702;2023-06-01T11:59:07;24.40;99.90
76787;DHT22;65739;51.482;5.702;2023-06-01T12:01:42;23.90;99.90
76787;DHT22;65739;51.482;5.702;2023-06-01T12:04:21;24.20;99.90
76787;DHT22;65739;51.482;5.702;2023-06-01T12:06:47;24.40;99.90
76787;DHT22;65739;51.482;5.702;2023-06-01T12:09:13;24.20;99.90
76787;DHT22;65739;51.482;5.702;2023-06-01T12:11:40;24.30;99.90
76787;DHT22;65739;51.482;5.702;2023-06-01T12:14:08;24.40;99.90
76787;DHT22;65739;51.482;5.702;2023-06-01T12:19:20;24.20;99.90
76787;DHT22;65739;51.482;5.702;2023-06-01T12:21:50;24.40;99.90
76787;DHT22;65739;51.482;5.702;2023-06-01T12:24:29;24.00;99.90
76787;DHT22;65739;51.482;5.702;2023-06-01T12:26:57;24.00;99.90
76787;DHT22;65739;51.482;5.702;2023-06-01T12:29:39;24.30;99.90
76787;DHT22;65739;51.482;5.702;2023-06-01T12:32:07;24.40;99.90
76787;DHT22;65739;51.482;5.702;2023-06-01T12:34:37;24.60;99.90
76787;DHT22;65739;51.482;5.702;2023-06-01T12:37:16;24.70;99.90
76787;DHT22;65739;51.482;5.702;2023-06-01T12:39:42;24.80;99.90
76787;DHT22;65739;51.482;5.702;2023-06-01T12:42:08;24.40;99.90
76787;DHT22;65739;51.482;5.702;2023-06-01T12:44:35;24.20;99.90
76787;DHT22;65739;51.482;5.702;2023-06-01T12:47:02;24.50;99.90
76787;DHT22;65739;51.482;5.702;2023-06-01T12:49:29;24.30;99.90
76787;DHT22;65739;51.482;5.702;2023-06-01T12:51:54;24.70;99.90
76787;DHT22;65739;51.482;5.702;2023-06-01T12:54:20;24.90;99.90
76787;DHT22;65739;51.482;5.702;2023-06-01T12:56:48;24.80;99.90
76787;DHT22;65739;51.482;5.702;2023-06-01T12:59:13;25.10;99.90
76787;DHT22;65739;51.482;5.702;2023-06-01T13:01:39;25.30;99.90
76787;DHT22;65739;51.482;5.702;2023-06-01T13:04:05;25.20;99.90
76787;DHT22;65739;51.482;5.702;2023-06-01T13:06:31;25.50;99.90
76787;DHT22;65739;51.482;5.702;2023-06-01T13:08:56;25.20;99.90
76787;DHT22;65739;51.482;5.702;2023-06-01T13:11:22;25.20;99.90
76787;DHT22;65739;51.482;5.702;2023-06-01T13:13:48;25.30;99.90
76787;DHT22;65739;51.482;5.702;2023-06-01T13:16:14;25.30;99.90
76787;DHT22;65739;51.482;5.702;2023-06-01T13:18:40;25.00;99.90
76787;DHT22;65739;51.482;5.702;2023-06-01T13:21:05;25.00;99.90
76787;DHT22;65739;51.482;5.702;2023-06-01T13:23:31;24.70;99.90
76787;DHT22;65739;51.482;5.702;2023-06-01T13:25:57;24.60;99.90
76787;DHT22;65739;51.482;5.702;2023-06-01T13:28:23;24.40;99.90
76787;DHT22;65739;51.482;5.702;2023-06-01T13:30:48;24.40;99.90
76787;DHT22;65739;51.482;5.702;2023-06-01T13:33:14;24.70;99.90
76787;DHT22;65739;51.482;5.702;2023-06-01T13:35:40;24.80;99.90
76787;DHT22;65739;51.482;5.702;2023-06-01T13:38:05;24.90;99.90
76787;DHT22;65739;51.482;5.702;2023-06-01T13:40:31;24.90;99.90
76787;DHT22;65739;51.482;5.702;2023-06-01T13:42:58;25.30;99.90
76787;DHT22;65739;51.482;5.702;2023-06-01T13:45:24;24.70;99.90
76787;DHT22;65739;51.482;5.702;2023-06-01T13:47:50;24.70;99.90
76787;DHT22;65739;51.482;5.702;2023-06-01T13:50:17;24.90;99.90
76787;DHT22;65739;51.482;5.702;2023-06-01T13:52:43;25.70;99.90
76787;DHT22;65739;51.482;5.702;2023-06-01T13:55:12;25.60;99.90
76787;DHT22;65739;51.482;5.702;2023-06-01T13:57:38;25.60;99.90
76787;DHT22;65739;51.482;5.702;2023-06-01T14:00:06;25.40;99.90
76787;DHT22;65739;51.482;5.702;2023-06-01T14:02:31;25.40;99.90
76787;DHT22;65739;51.482;5.702;2023-06-01T14:04:57;25.50;99.90
76787;DHT22;65739;51.482;5.702;2023-06-01T14:07:22;25.80;99.90
76787;DHT22;65739;51.482;5.702;2023-06-01T14:09:48;25.60;99.90
76787;DHT22;65739;51.482;5.702;2023-06-01T14:12:14;25.70;99.90
76787;DHT22;65739;51.482;5.702;2023-06-01T14:14:39;25.70;99.90
76787;DHT22;65739;51.482;5.702;2023-06-01T14:17:05;26.10;99.90
76787;DHT22;65739;51.482;5.702;2023-06-01T14:19:31;26.50;99.90
76787;DHT22;65739;51.482;5.702;2023-06-01T14:21:57;26.10;99.90
76787;DHT22;65739;51.482;5.702;2023-06-01T14:24:22;25.80;99.90
76787;DHT22;65739;51.482;5.702;2023-06-01T14:26:48;25.80;99.90
76787;DHT22;65739;51.482;5.702;2023-06-01T14:29:14;25.40;99.90
76787;DHT22;65739;51.482;5.702;2023-06-01T14:31:39;25.50;99.90
76787;DHT22;65739;51.482;5.702;2023-06-01T14:34:05;25.70;99.90
76787;DHT22;65739;51.482;5.702;2023-06-01T14:36:30;25.70;99.90
76787;DHT22;65739;51.482;5.702;2023-06-01T14:38:57;25.80;99.90
76787;DHT22;65739;51.482;5.702;2023-06-01T14:41:22;25.70;99.90
76787;DHT22;65739;51.482;5.702;2023-06-01T14:43:48;25.00;99.90
76787;DHT22;65739;51.482;5.702;2023-06-01T14:46:13;24.80;99.90
76787;DHT22;65739;51.482;5.702;2023-06-01T14:48:39;25.20;99.90
76787;DHT22;65739;51.482;5.702;2023-06-01T14:51:04;25.10;99.90
76787;DHT22;65739;51.482;5.702;2023-06-01T14:53:30;25.30;99.90
76787;DHT22;65739;51.482;5.702;2023-06-01T14:55:55;25.90;99.90
76787;DHT22;65739;51.482;5.702;2023-06-01T14:58:21;26.10;99.90
76787;DHT22;65739;51.482;5.702;2023-06-01T15:00:47;25.70;99.90
76787;DHT22;65739;51.482;5.702;2023-06-01T15:03:13;25.60;99.90
76787;DHT22;65739;51.482;5.702;2023-06-01T15:05:38;25.30;99.90
76787;DHT22;65739;51.482;5.702;2023-06-01T15:08:05;25.10;99.90
76787;DHT22;65739;51.482;5.702;2023-06-01T15:10:32;25.40;99.90
76787;DHT22;65739;51.482;5.702;2023-06-01T15:12:57;25.70;99.90
76787;DHT22;65739;51.482;5.702;2023-06-01T15:15:23;26.00;99.90
76787;DHT22;65739;51.482;5.702;2023-06-01T15:17:48;26.10;99.90
76787;DHT22;65739;51.482;5.702;2023-06-01T15:20:14;26.00;99.90
76787;DHT22;65739;51.482;5.702;2023-06-01T15:22:40;26.00;99.90
76787;DHT22;65739;51.482;5.702;2023-06-01T15:25:06;26.30;99.90
76787;DHT22;65739;51.482;5.702;2023-06-01T15:27:32;25.30;99.90
76787;DHT22;65739;51.482;5.702;2023-06-01T15:29:57;25.40;99.90
76787;DHT22;65739;51.482;5.702;2023-06-01T15:32:23;25.20;99.90
76787;DHT22;65739;51.482;5.702;2023-06-01T15:34:48;25.10;99.90
76787;DHT22;65739;51.482;5.702;2023-06-01T15:37:14;25.30;99.90
76787;DHT22;65739;51.482;5.702;2023-06-01T15:39:39;25.40;99.90
76787;DHT22;65739;51.482;5.702;2023-06-01T15:42:07;25.00;99.90
76787;DHT22;65739;51.482;5.702;2023-06-01T15:44:33;25.20;99.90
76787;DHT22;65739;51.482;5.702;2023-06-01T15:46:58;25.50;99.90
76787;DHT22;65739;51.482;5.702;2023-06-01T15:49:24;25.30;99.90
76787;DHT22;65739;51.482;5.702;2023-06-01T15:51:50;24.90;99.90
76787;DHT22;65739;51.482;5.702;2023-06-01T15:54:15;24.90;99.90